createdAt,value
2017-03-28T00:00:32.586Z,101423.16
2017-03-28T00:01:36.252Z,101420.86
2017-03-28T00:02:40.521Z,101422.50
2017-03-28T00:03:45.914Z,101416.30
2017-03-28T00:04:55.878Z,101414.42
2017-03-28T00:06:00.588Z,101417.03
2017-03-28T00:07:03.992Z,101417.14
2017-03-28T00:08:07.814Z,101420.15
2017-03-28T00:09:13.702Z,101417.59
2017-03-28T00:10:19.037Z,101416.59
2017-03-28T00:11:23.739Z,101423.30
2017-03-28T00:12:27.558Z,101424.66
2017-03-28T00:13:32.529Z,101425.44
2017-03-28T00:14:37.713Z,101426.39
2017-03-28T00:15:42.012Z,101424.05
2017-03-28T00:16:46.336Z,101418.64
2017-03-28T00:17:51.128Z,101416.75
2017-03-28T00:18:56.251Z,101413.89
2017-03-28T00:20:05.729Z,101415.72
2017-03-28T00:21:15.106Z,101413.21
2017-03-28T00:22:23.664Z,101408.36
2017-03-28T00:23:26.692Z,101414.63
2017-03-28T00:24:34.315Z,101419.06
2017-03-28T00:25:39.145Z,101416.83
2017-03-28T00:26:43.500Z,101405.75
2017-03-28T00:27:48.536Z,101413.20
2017-03-28T00:28:53.512Z,101409.02
2017-03-28T00:30:01.116Z,101410.14
2017-03-28T00:31:07.540Z,101408.81
2017-03-28T00:32:12.281Z,101413.85
2017-03-28T00:33:18.199Z,101403.89
2017-03-28T00:34:22.709Z,101405.73
2017-03-28T00:35:27.548Z,101400.28
2017-03-28T00:36:32.752Z,101399.44
2017-03-28T00:37:36.974Z,101407.25
2017-03-28T00:38:41.528Z,101400.72
2017-03-28T00:39:45.788Z,101401.57
2017-03-28T00:40:50.502Z,101398.72
2017-03-28T00:41:54.618Z,101393.83
2017-03-28T00:43:01.765Z,101393.36
2017-03-28T00:44:06.553Z,101399.37
2017-03-28T00:45:11.195Z,101395.44
2017-03-28T00:46:15.693Z,101394.43
2017-03-28T00:47:20.781Z,101396.45
2017-03-28T00:48:25.458Z,101392.38
2017-03-28T00:49:30.074Z,101396.36
2017-03-28T00:50:35.284Z,101396.55
2017-03-28T00:51:39.346Z,101401.70
2017-03-28T00:52:44.278Z,101394.70
2017-03-28T00:53:49.192Z,101395.38
2017-03-28T00:54:52.185Z,101393.30
2017-03-28T00:55:56.785Z,101392.91
2017-03-28T00:57:00.461Z,101393.56
2017-03-28T00:58:03.723Z,101391.45
2017-03-28T00:59:08.571Z,101387.47
2017-03-28T01:00:12.505Z,101385.66
2017-03-28T01:01:16.198Z,101390.48
2017-03-28T01:02:21.036Z,101388.56
2017-03-28T01:03:26.283Z,101383.45
2017-03-28T01:04:31.436Z,101388.06
2017-03-28T01:05:36.126Z,101383.38
2017-03-28T01:06:41.077Z,101383.34
2017-03-28T01:07:45.224Z,101372.30
2017-03-28T01:08:48.005Z,101376.59
2017-03-28T01:09:46.075Z,101373.23
2017-03-28T01:10:49.944Z,101373.06
2017-03-28T01:11:53.823Z,101370.37
2017-03-28T01:12:57.745Z,101370.02
2017-03-28T01:14:02.788Z,101370.23
2017-03-28T01:15:07.353Z,101369.17
2017-03-28T01:16:11.223Z,101368.42
2017-03-28T01:17:16.215Z,101368.24
2017-03-28T01:18:20.417Z,101365.88
2017-03-28T01:19:24.314Z,101368.27
2017-03-28T01:20:27.763Z,101367.72
2017-03-28T01:21:32.869Z,101355.35
2017-03-28T01:22:36.464Z,101358.08
2017-03-28T01:23:39.884Z,101360.56
2017-03-28T01:24:43.673Z,101361.26
2017-03-28T01:25:46.726Z,101353.48
2017-03-28T01:26:50.985Z,101355.62
2017-03-28T01:27:55.279Z,101361.69
2017-03-28T01:28:59.331Z,101359.66
2017-03-28T01:30:02.568Z,101359.02
2017-03-28T01:31:05.893Z,101352.39
2017-03-28T01:32:09.564Z,101355.05
2017-03-28T01:33:14.681Z,101357.70
2017-03-28T01:34:20.818Z,101352.73
2017-03-28T01:35:25.776Z,101353.62
2017-03-28T01:36:31.047Z,101342.50
2017-03-28T01:37:35.310Z,101339.52
2017-03-28T01:38:40.312Z,101339.61
2017-03-28T01:39:45.341Z,101338.75
2017-03-28T01:40:50.437Z,101328.33
2017-03-28T01:41:54.949Z,101331.16
2017-03-28T01:42:59.629Z,101331.69
2017-03-28T01:44:04.122Z,101339.02
2017-03-28T01:45:09.190Z,101339.97
2017-03-28T01:46:13.640Z,101335.53
2017-03-28T01:47:18.293Z,101337.88
2017-03-28T01:48:22.593Z,101331.56
2017-03-28T01:49:27.317Z,101329.94
2017-03-28T01:50:31.856Z,101333.49
2017-03-28T01:51:37.017Z,101337.90
2017-03-28T01:52:44.825Z,101338.70
2017-03-28T01:53:47.447Z,101328.41
2017-03-28T01:54:52.092Z,101331.27
2017-03-28T01:55:56.908Z,101334.40
2017-03-28T01:57:01.506Z,101327.90
2017-03-28T01:58:05.257Z,101328.83
2017-03-28T01:59:09.223Z,101331.41
2017-03-28T02:00:14.147Z,101330.22
2017-03-28T02:01:19.305Z,101324.55
2017-03-28T02:02:24.017Z,101322.30
2017-03-28T02:03:28.046Z,101326.14
2017-03-28T02:04:32.646Z,101315.42
2017-03-28T02:05:37.496Z,101318.80
2017-03-28T02:06:41.907Z,101316.35
2017-03-28T02:07:45.725Z,101314.90
2017-03-28T02:08:51.186Z,101315.31
2017-03-28T02:09:56.074Z,101322.52
2017-03-28T02:10:59.866Z,101313.70
2017-03-28T02:12:05.649Z,101322.05
2017-03-28T02:13:09.471Z,101314.44
2017-03-28T02:14:14.337Z,101314.80
2017-03-28T02:15:18.529Z,101321.67
2017-03-28T02:16:23.359Z,101319.00
2017-03-28T02:17:27.960Z,101316.55
2017-03-28T02:18:31.081Z,101320.92
2017-03-28T02:19:36.417Z,101321.19
2017-03-28T02:20:41.136Z,101316.00
2017-03-28T02:21:46.233Z,101319.77
2017-03-28T02:22:50.833Z,101320.74
2017-03-28T02:23:55.705Z,101312.58
2017-03-28T02:25:00.797Z,101321.31
2017-03-28T02:26:05.176Z,101321.98
2017-03-28T02:27:10.445Z,101326.06
2017-03-28T02:28:14.842Z,101318.47
2017-03-28T02:29:19.362Z,101318.07
2017-03-28T02:30:24.142Z,101320.07
2017-03-28T02:31:28.506Z,101322.48
2017-03-28T02:32:32.242Z,101327.75
2017-03-28T02:33:37.529Z,101326.50
2017-03-28T02:34:42.288Z,101321.55
2017-03-28T02:35:46.438Z,101324.58
2017-03-28T02:36:52.193Z,101324.36
2017-03-28T02:37:56.601Z,101323.06
2017-03-28T02:39:01.257Z,101321.39
2017-03-28T02:40:05.517Z,101324.23
2017-03-28T02:41:11.153Z,101321.98
2017-03-28T02:42:16.438Z,101326.58
2017-03-28T02:43:20.401Z,101318.80
2017-03-28T02:44:24.725Z,101320.52
2017-03-28T02:45:28.696Z,101322.44
2017-03-28T02:46:33.100Z,101335.66
2017-03-28T02:47:37.533Z,101326.85
2017-03-28T02:48:41.145Z,101320.73
2017-03-28T02:49:44.503Z,101324.95
2017-03-28T02:50:48.643Z,101319.59
2017-03-28T02:51:53.045Z,101325.05
2017-03-28T02:52:56.838Z,101313.75
2017-03-28T02:54:00.511Z,101316.97
2017-03-28T02:55:03.761Z,101315.70
2017-03-28T02:56:08.953Z,101313.86
2017-03-28T02:57:12.281Z,101307.42
2017-03-28T02:58:15.797Z,101315.18
2017-03-28T02:59:19.275Z,101310.23
2017-03-28T03:00:23.492Z,101307.72
2017-03-28T03:01:27.972Z,101313.54
2017-03-28T03:02:31.629Z,101311.37
2017-03-28T03:03:35.039Z,101315.25
2017-03-28T03:04:38.834Z,101306.61
2017-03-28T03:05:41.990Z,101312.24
2017-03-28T03:06:47.476Z,101313.17
2017-03-28T03:07:52.278Z,101310.88
2017-03-28T03:08:56.745Z,101308.45
2017-03-28T03:09:59.814Z,101311.97
2017-03-28T03:11:05.007Z,101312.70
2017-03-28T03:12:09.764Z,101312.20
2017-03-28T03:13:13.272Z,101310.00
2017-03-28T03:14:17.068Z,101307.44
2017-03-28T03:15:27.158Z,101311.06
2017-03-28T03:16:31.190Z,101315.09
2017-03-28T03:17:34.975Z,101307.53
2017-03-28T03:18:38.069Z,101309.38
2017-03-28T03:19:41.758Z,101301.74
2017-03-28T03:20:46.752Z,101312.41
2017-03-28T03:21:50.885Z,101312.00
2017-03-28T03:22:54.081Z,101304.80
2017-03-28T03:23:57.500Z,101307.75
2017-03-28T03:25:02.171Z,101308.25
2017-03-28T03:27:41.288Z,101315.69
2017-03-28T03:28:45.095Z,101307.93
2017-03-28T03:29:50.065Z,101313.88
2017-03-28T03:30:54.738Z,101310.05
2017-03-28T03:31:58.373Z,101309.06
2017-03-28T03:33:03.414Z,101311.04
2017-03-28T03:34:07.650Z,101309.77
2017-03-28T03:35:11.403Z,101308.36
2017-03-28T03:36:14.946Z,101308.09
2017-03-28T03:37:17.703Z,101301.30
2017-03-28T03:38:22.729Z,101306.53
2017-03-28T03:39:27.405Z,101312.04
2017-03-28T03:40:32.436Z,101298.80
2017-03-28T03:41:36.602Z,101311.25
2017-03-28T03:42:40.279Z,101312.48
2017-03-28T03:43:43.726Z,101304.52
2017-03-28T03:44:47.298Z,101298.41
2017-03-28T03:45:52.012Z,101301.31
2017-03-28T03:46:56.624Z,101299.56
2017-03-28T03:48:01.514Z,101307.72
2017-03-28T03:49:06.512Z,101304.69
2017-03-28T03:50:10.121Z,101302.81
2017-03-28T03:51:15.775Z,101304.54
2017-03-28T03:52:20.069Z,101303.06
2017-03-28T03:53:25.665Z,101296.11
2017-03-28T03:54:30.364Z,101294.20
2017-03-28T03:55:34.201Z,101296.44
2017-03-28T03:56:37.608Z,101299.01
2017-03-28T03:57:41.076Z,101302.31
2017-03-28T03:58:44.449Z,101300.64
2017-03-28T04:00:51.232Z,101301.71
2017-03-28T04:01:54.714Z,101303.81
2017-03-28T04:02:58.921Z,101308.70
2017-03-28T04:04:03.821Z,101300.97
2017-03-28T04:05:07.809Z,101305.30
2017-03-28T04:06:12.592Z,101308.30
2017-03-28T04:07:16.680Z,101300.84
2017-03-28T04:08:21.744Z,101302.11
2017-03-28T04:09:25.108Z,101304.79
2017-03-28T04:10:29.063Z,101311.17
2017-03-28T04:11:33.092Z,101309.81
2017-03-28T04:12:36.599Z,101309.59
2017-03-28T04:13:46.243Z,101315.85
2017-03-28T04:14:49.311Z,101307.17
2017-03-28T04:15:53.133Z,101306.45
2017-03-28T04:16:58.748Z,101304.89
2017-03-28T04:18:02.723Z,101306.16
2017-03-28T04:19:06.430Z,101307.33
2017-03-28T04:20:10.758Z,101307.35
2017-03-28T04:21:14.653Z,101304.59
2017-03-28T04:22:18.504Z,101302.89
2017-03-28T04:23:24.050Z,101301.05
2017-03-28T04:24:28.715Z,101313.78
2017-03-28T04:25:32.334Z,101311.59
2017-03-28T04:26:36.609Z,101312.59
2017-03-28T04:27:40.510Z,101311.95
2017-03-28T04:28:45.364Z,101313.75
2017-03-28T04:29:50.144Z,101313.98
2017-03-28T04:30:54.444Z,101317.31
2017-03-28T04:31:58.396Z,101313.22
2017-03-28T04:33:03.241Z,101309.56
2017-03-28T04:34:08.071Z,101310.35
2017-03-28T04:35:13.106Z,101309.56
2017-03-28T04:36:17.597Z,101309.86
2017-03-28T04:37:21.894Z,101310.16
2017-03-28T04:38:26.645Z,101310.88
2017-03-28T04:39:36.097Z,101312.25
2017-03-28T04:40:40.072Z,101314.38
2017-03-28T04:41:44.776Z,101316.98
2017-03-28T04:42:49.744Z,101317.95
2017-03-28T04:43:53.480Z,101320.17
2017-03-28T04:44:57.979Z,101317.84
2017-03-28T04:46:02.261Z,101325.30
2017-03-28T04:47:05.477Z,101322.34
2017-03-28T04:48:09.670Z,101319.98
2017-03-28T04:49:15.253Z,101313.00
2017-03-28T04:50:20.385Z,101319.30
2017-03-28T04:51:24.913Z,101318.37
2017-03-28T04:52:29.591Z,101320.41
2017-03-28T04:53:34.251Z,101322.94
2017-03-28T04:54:39.670Z,101323.52
2017-03-28T04:55:43.752Z,101320.80
2017-03-28T04:56:47.641Z,101325.83
2017-03-28T04:57:52.724Z,101323.91
2017-03-28T04:58:57.286Z,101322.88
2017-03-28T05:00:01.611Z,101325.09
2017-03-28T05:01:06.088Z,101321.94
2017-03-28T05:02:10.260Z,101324.89
2017-03-28T05:03:14.953Z,101331.16
2017-03-28T05:04:19.913Z,101329.63
2017-03-28T05:05:24.659Z,101323.83
2017-03-28T05:06:29.082Z,101317.24
2017-03-28T05:07:33.633Z,101323.62
2017-03-28T05:08:38.319Z,101316.86
2017-03-28T05:09:42.508Z,101324.14
2017-03-28T05:10:46.868Z,101323.95
2017-03-28T05:11:51.238Z,101319.53
2017-03-28T05:12:55.702Z,101318.86
2017-03-28T05:14:00.455Z,101328.42
2017-03-28T05:15:05.473Z,101326.72
2017-03-28T05:16:10.232Z,101327.38
2017-03-28T05:17:14.286Z,101321.36
2017-03-28T05:18:18.599Z,101330.34
2017-03-28T05:19:22.897Z,101332.63
2017-03-28T05:20:27.552Z,101329.06
2017-03-28T05:21:32.278Z,101329.97
2017-03-28T05:22:37.879Z,101330.73
2017-03-28T05:23:42.730Z,101325.05
2017-03-28T05:24:46.550Z,101327.41
2017-03-28T05:25:49.317Z,101320.55
2017-03-28T05:26:53.521Z,101332.27
2017-03-28T05:27:58.517Z,101333.27
2017-03-28T05:29:02.934Z,101322.20
2017-03-28T05:30:07.240Z,101325.22
2017-03-28T05:31:11.038Z,101325.67
2017-03-28T05:32:16.341Z,101326.30
2017-03-28T05:33:20.525Z,101321.82
2017-03-28T05:34:25.085Z,101327.36
2017-03-28T05:35:29.221Z,101330.17
2017-03-28T05:36:33.601Z,101325.45
2017-03-28T05:37:38.820Z,101329.53
2017-03-28T05:38:50.439Z,101340.86
2017-03-28T05:41:05.049Z,101335.12
2017-03-28T05:42:19.443Z,101334.55
2017-03-28T05:43:24.656Z,101341.24
2017-03-28T05:44:39.099Z,101328.77
2017-03-28T05:45:52.585Z,101327.07
2017-03-28T05:46:57.591Z,101335.98
2017-03-28T05:48:05.686Z,101336.16
2017-03-28T05:49:17.830Z,101341.79
2017-03-28T05:50:22.626Z,101339.34
2017-03-28T05:51:27.308Z,101338.80
2017-03-28T05:52:32.902Z,101342.34
2017-03-28T05:53:38.008Z,101335.50
2017-03-28T05:54:43.423Z,101338.39
2017-03-28T05:55:48.284Z,101344.47
2017-03-28T05:56:46.147Z,101344.79
2017-03-28T05:57:44.278Z,101337.77
2017-03-28T05:58:42.180Z,101345.27
2017-03-28T05:59:40.064Z,101341.20
2017-03-28T06:00:44.637Z,101341.49
2017-03-28T06:01:49.581Z,101339.94
2017-03-28T06:02:47.459Z,101341.38
2017-03-28T06:03:45.309Z,101341.21
2017-03-28T06:04:43.161Z,101344.49
2017-03-28T06:05:41.077Z,101348.13
2017-03-28T06:06:38.927Z,101346.67
2017-03-28T06:07:36.872Z,101348.39
2017-03-28T06:08:41.262Z,101350.45
2017-03-28T06:09:45.741Z,101357.43
2017-03-28T06:10:52.267Z,101353.84
2017-03-28T06:11:56.702Z,101345.93
2017-03-28T06:13:00.647Z,101343.50
2017-03-28T06:14:04.473Z,101345.33
2017-03-28T06:15:09.561Z,101341.53
2017-03-28T06:16:13.800Z,101338.78
2017-03-28T06:17:18.876Z,101339.63
2017-03-28T06:18:22.917Z,101343.45
2017-03-28T06:19:28.066Z,101343.86
2017-03-28T06:20:31.484Z,101345.39
2017-03-28T06:21:35.499Z,101351.45
2017-03-28T06:22:39.281Z,101345.93
2017-03-28T06:23:44.781Z,101348.89
2017-03-28T06:24:50.156Z,101345.78
2017-03-28T06:25:55.314Z,101342.66
2017-03-28T06:27:00.433Z,101346.91
2017-03-28T06:28:04.741Z,101344.45
2017-03-28T06:29:09.217Z,101344.70
2017-03-28T06:30:13.993Z,101340.77
2017-03-28T06:31:18.215Z,101345.27
2017-03-28T06:32:22.856Z,101347.09
2017-03-28T06:33:33.505Z,101341.02
2017-03-28T06:34:36.633Z,101341.54
2017-03-28T06:35:41.404Z,101344.13
2017-03-28T06:36:44.940Z,101345.05
2017-03-28T06:37:49.129Z,101341.39
2017-03-28T06:38:47.058Z,101344.17
2017-03-28T06:39:51.513Z,101338.16
2017-03-28T06:40:56.316Z,101344.20
2017-03-28T06:42:00.634Z,101348.48
2017-03-28T06:43:05.214Z,101347.29
2017-03-28T06:44:09.985Z,101342.70
2017-03-28T06:45:14.993Z,101347.14
2017-03-28T06:46:19.745Z,101348.17
2017-03-28T06:47:25.262Z,101350.14
2017-03-28T06:48:29.699Z,101348.29
2017-03-28T06:49:34.555Z,101353.16
2017-03-28T06:50:32.476Z,101350.84
2017-03-28T06:51:53.552Z,101354.78
2017-03-28T06:52:57.836Z,101352.33
2017-03-28T06:54:02.332Z,101352.61
2017-03-28T06:55:06.737Z,101345.66
2017-03-28T06:56:11.286Z,101352.06
2017-03-28T06:57:15.870Z,101352.78
2017-03-28T06:58:19.932Z,101353.27
2017-03-28T06:59:23.946Z,101350.34
2017-03-28T07:00:28.571Z,101347.25
2017-03-28T07:01:32.405Z,101348.30
2017-03-28T07:02:36.720Z,101348.46
2017-03-28T07:03:44.866Z,101355.30
2017-03-28T07:04:48.548Z,101348.45
2017-03-28T07:05:52.251Z,101347.84
2017-03-28T07:06:57.117Z,101352.45
2017-03-28T07:08:01.640Z,101349.91
2017-03-28T07:09:04.976Z,101346.70
2017-03-28T07:10:08.699Z,101351.71
2017-03-28T07:11:12.793Z,101347.83
2017-03-28T07:12:16.836Z,101348.14
2017-03-28T07:13:14.811Z,101353.43
2017-03-28T07:14:12.663Z,101351.85
2017-03-28T07:15:10.721Z,101350.88
2017-03-28T07:16:08.577Z,101348.22
2017-03-28T07:17:06.433Z,101345.34
2017-03-28T07:18:04.270Z,101346.91
2017-03-28T07:19:02.190Z,101349.04
2017-03-28T07:20:00.088Z,101350.05
2017-03-28T07:20:57.941Z,101347.67
2017-03-28T07:21:55.789Z,101351.22
2017-03-28T07:22:53.656Z,101352.01
2017-03-28T07:23:51.533Z,101353.05
2017-03-28T07:24:49.373Z,101348.41
2017-03-28T07:25:47.188Z,101352.54
2017-03-28T07:26:45.132Z,101352.24
2017-03-28T07:27:43.030Z,101349.53
2017-03-28T07:28:40.913Z,101350.41
2017-03-28T07:29:38.834Z,101353.94
2017-03-28T07:30:36.689Z,101355.02
2017-03-28T07:31:34.528Z,101354.48
2017-03-28T07:32:32.357Z,101339.95
2017-03-28T07:33:30.241Z,101349.80
2017-03-28T07:34:28.080Z,101351.41
2017-03-28T07:35:26.011Z,101345.09
2017-03-28T07:36:23.905Z,101347.16
2017-03-28T07:37:21.794Z,101350.08
2017-03-28T07:38:19.691Z,101339.63
2017-03-28T07:39:17.529Z,101351.36
2017-03-28T07:40:15.424Z,101341.83
2017-03-28T07:41:13.279Z,101341.16
2017-03-28T07:42:11.172Z,101337.12
2017-03-28T07:43:09.116Z,101344.58
2017-03-28T07:44:06.992Z,101343.00
2017-03-28T07:45:04.919Z,101350.95
2017-03-28T07:46:02.768Z,101351.86
2017-03-28T07:47:00.606Z,101345.43
2017-03-28T07:47:58.456Z,101349.00
2017-03-28T07:48:56.311Z,101353.44
2017-03-28T07:49:54.225Z,101355.36
2017-03-28T07:50:52.057Z,101347.52
2017-03-28T07:51:49.979Z,101356.08
2017-03-28T07:52:47.849Z,101351.73
2017-03-28T07:53:45.774Z,101358.73
2017-03-28T07:54:43.636Z,101356.14
2017-03-28T07:55:41.498Z,101357.73
2017-03-28T07:56:39.344Z,101354.47
2017-03-28T07:57:37.205Z,101351.96
2017-03-28T07:58:35.156Z,101353.39
2017-03-28T07:59:33.017Z,101351.27
2017-03-28T08:00:30.934Z,101355.40
2017-03-28T08:01:28.849Z,101349.02
2017-03-28T08:02:26.753Z,101355.05
2017-03-28T08:03:24.608Z,101355.66
2017-03-28T08:04:22.576Z,101360.39
2017-03-28T08:05:20.476Z,101362.30
2017-03-28T08:06:18.400Z,101358.23
2017-03-28T08:07:16.262Z,101362.05
2017-03-28T08:08:14.125Z,101363.72
2017-03-28T08:09:11.956Z,101368.08
2017-03-28T08:10:10.728Z,101364.23
2017-03-28T08:11:08.678Z,101367.20
2017-03-28T08:12:06.552Z,101359.77
2017-03-28T08:13:04.495Z,101363.16
2017-03-28T08:14:02.352Z,101361.06
2017-03-28T08:15:00.276Z,101365.66
2017-03-28T08:15:58.172Z,101365.73
2017-03-28T08:16:56.016Z,101368.39
2017-03-28T08:17:53.892Z,101364.30
2017-03-28T08:18:51.753Z,101357.63
2017-03-28T08:19:49.608Z,101369.55
2017-03-28T08:20:48.444Z,101370.20
2017-03-28T08:21:46.388Z,101366.22
2017-03-28T08:22:44.249Z,101363.77
2017-03-28T08:23:42.227Z,101357.30
2017-03-28T08:24:40.122Z,101364.84
2017-03-28T08:25:37.968Z,101357.51
2017-03-28T08:26:35.840Z,101360.35
2017-03-28T08:27:33.700Z,101356.70
2017-03-28T08:28:31.596Z,101353.31
2017-03-28T08:29:29.450Z,101359.02
2017-03-28T08:30:27.410Z,101358.51
2017-03-28T08:31:25.289Z,101356.14
2017-03-28T08:32:23.148Z,101357.02
2017-03-28T08:33:21.009Z,101350.86
2017-03-28T08:34:18.877Z,101353.58
2017-03-28T08:35:16.723Z,101354.42
2017-03-28T08:36:14.550Z,101348.00
2017-03-28T08:37:12.448Z,101349.84
2017-03-28T08:38:10.286Z,101348.83
2017-03-28T08:39:08.117Z,101350.79
2017-03-28T08:40:06.044Z,101356.30
2017-03-28T08:41:03.938Z,101352.22
2017-03-28T08:42:01.811Z,101355.80
2017-03-28T08:42:59.710Z,101358.80
2017-03-28T08:43:57.541Z,101353.91
2017-03-28T08:44:55.465Z,101352.19
2017-03-28T08:45:53.308Z,101351.83
2017-03-28T08:46:51.121Z,101354.55
2017-03-28T08:47:48.943Z,101353.98
2017-03-28T08:48:46.961Z,101351.85
2017-03-28T08:49:44.822Z,101356.71
2017-03-28T08:50:42.812Z,101348.97
2017-03-28T08:51:40.668Z,101349.19
2017-03-28T08:52:38.533Z,101352.94
2017-03-28T08:53:36.385Z,101355.09
2017-03-28T08:54:34.225Z,101353.22
2017-03-28T08:55:32.055Z,101355.45
2017-03-28T08:56:29.859Z,101352.19
2017-03-28T08:57:27.788Z,101355.30
2017-03-28T08:58:25.686Z,101353.66
2017-03-28T08:59:23.568Z,101352.19
2017-03-28T09:00:22.189Z,101355.97
2017-03-28T09:01:20.160Z,101358.99
2017-03-28T09:02:18.000Z,101352.38
2017-03-28T09:03:15.877Z,101356.94
2017-03-28T09:04:13.777Z,101356.27
2017-03-28T09:05:11.652Z,101355.83
2017-03-28T09:06:09.482Z,101355.74
2017-03-28T09:07:07.391Z,101357.20
2017-03-28T09:08:05.276Z,101355.97
2017-03-28T09:09:03.285Z,101357.52
2017-03-28T09:10:01.125Z,101349.84
2017-03-28T09:10:59.005Z,101362.36
2017-03-28T09:11:56.881Z,101359.21
2017-03-28T09:12:54.720Z,101354.48
2017-03-28T09:13:52.577Z,101362.77
2017-03-28T09:14:50.401Z,101358.92
2017-03-28T09:15:48.267Z,101353.95
2017-03-28T09:16:46.108Z,101357.41
2017-03-28T09:17:43.964Z,101358.49
2017-03-28T09:18:41.911Z,101354.12
2017-03-28T09:19:39.765Z,101363.42
2017-03-28T09:20:37.676Z,101362.80
2017-03-28T09:21:35.563Z,101361.45
2017-03-28T09:22:33.425Z,101363.03
2017-03-28T09:23:31.333Z,101362.66
2017-03-28T09:24:29.165Z,101359.69
2017-03-28T09:25:27.131Z,101364.17
2017-03-28T09:26:25.020Z,101356.83
2017-03-28T09:27:22.928Z,101358.51
2017-03-28T09:28:20.815Z,101359.30
2017-03-28T09:29:18.720Z,101362.94
2017-03-28T09:30:16.620Z,101364.95
2017-03-28T09:31:14.592Z,101364.05
2017-03-28T09:32:12.469Z,101360.13
2017-03-28T09:33:10.428Z,101355.72
2017-03-28T09:34:08.345Z,101358.97
2017-03-28T09:35:06.216Z,101360.53
2017-03-28T09:36:04.037Z,101356.95
2017-03-28T09:37:01.949Z,101359.98
2017-03-28T09:37:59.826Z,101362.03
2017-03-28T09:38:57.730Z,101361.40
2017-03-28T09:39:55.585Z,101365.72
2017-03-28T09:40:53.412Z,101361.60
2017-03-28T09:41:51.246Z,101357.41
2017-03-28T09:42:49.084Z,101360.05
2017-03-28T09:43:46.933Z,101354.36
2017-03-28T09:44:44.753Z,101354.52
2017-03-28T09:45:42.628Z,101353.69
2017-03-28T09:46:40.464Z,101354.08
2017-03-28T09:47:38.341Z,101355.77
2017-03-28T09:48:36.153Z,101357.08
2017-03-28T09:49:34.058Z,101362.81
2017-03-28T09:50:31.912Z,101362.64
2017-03-28T09:51:29.741Z,101359.76
2017-03-28T09:52:27.626Z,101362.00
2017-03-28T09:53:25.504Z,101362.44
2017-03-28T09:54:23.354Z,101361.77
2017-03-28T09:55:21.291Z,101365.61
2017-03-28T09:56:19.198Z,101361.83
2017-03-28T09:57:17.092Z,101354.31
2017-03-28T09:58:14.945Z,101362.52
2017-03-28T09:59:12.798Z,101358.97
2017-03-28T10:00:10.753Z,101365.28
2017-03-28T10:01:08.625Z,101358.31
2017-03-28T10:02:06.513Z,101360.77
2017-03-28T10:03:04.369Z,101358.41
2017-03-28T10:04:02.225Z,101361.33
2017-03-28T10:05:00.072Z,101357.16
2017-03-28T10:05:57.949Z,101352.73
2017-03-28T10:06:55.794Z,101359.98
2017-03-28T10:07:53.621Z,101361.64
2017-03-28T10:08:51.493Z,101356.41
2017-03-28T10:09:49.339Z,101357.38
2017-03-28T10:10:47.215Z,101360.16
2017-03-28T10:11:45.046Z,101350.29
2017-03-28T10:12:42.908Z,101355.35
2017-03-28T10:13:40.774Z,101352.92
2017-03-28T10:14:38.629Z,101355.66
2017-03-28T10:15:36.477Z,101354.55
2017-03-28T10:16:34.390Z,101354.80
2017-03-28T10:17:32.225Z,101354.89
2017-03-28T10:18:30.076Z,101349.47
2017-03-28T10:19:27.980Z,101358.03
2017-03-28T10:20:25.796Z,101356.98
2017-03-28T10:21:23.750Z,101351.75
2017-03-28T10:22:21.625Z,101354.70
2017-03-28T10:23:19.553Z,101352.09
2017-03-28T10:24:17.464Z,101355.20
2017-03-28T10:25:15.356Z,101352.00
2017-03-28T10:26:13.225Z,101352.55
2017-03-28T10:27:11.103Z,101350.28
2017-03-28T10:28:08.977Z,101352.11
2017-03-28T10:29:06.897Z,101350.44
2017-03-28T10:30:04.869Z,101359.98
2017-03-28T10:31:02.834Z,101348.09
2017-03-28T10:32:00.698Z,101357.92
2017-03-28T10:32:58.565Z,101360.89
2017-03-28T10:33:56.427Z,101360.13
2017-03-28T10:34:54.268Z,101353.45
2017-03-28T10:35:52.085Z,101357.78
2017-03-28T10:36:49.961Z,101357.65
2017-03-28T10:37:47.805Z,101350.28
2017-03-28T10:38:45.653Z,101348.64
2017-03-28T10:39:43.517Z,101351.34
2017-03-28T10:40:41.370Z,101352.81
2017-03-28T10:41:39.231Z,101358.34
2017-03-28T10:42:37.146Z,101351.39
2017-03-28T10:43:35.012Z,101359.20
2017-03-28T10:44:32.837Z,101355.64
2017-03-28T10:45:30.704Z,101360.30
2017-03-28T10:46:28.694Z,101355.20
2017-03-28T10:47:26.515Z,101359.23
2017-03-28T10:48:24.333Z,101360.78
2017-03-28T10:49:22.233Z,101357.39
2017-03-28T10:50:20.105Z,101356.50
2017-03-28T10:51:17.946Z,101359.47
2017-03-28T10:52:15.826Z,101357.75
2017-03-28T10:53:13.858Z,101348.87
2017-03-28T10:54:11.821Z,101356.50
2017-03-28T10:55:09.677Z,101354.20
2017-03-28T10:56:07.580Z,101360.07
2017-03-28T10:57:05.424Z,101351.29
2017-03-28T10:58:03.293Z,101356.59
2017-03-28T10:59:01.111Z,101350.49
2017-03-28T10:59:59.035Z,101357.02
2017-03-28T11:00:56.884Z,101353.52
2017-03-28T11:01:54.787Z,101359.38
2017-03-28T11:02:52.614Z,101350.52
2017-03-28T11:03:50.560Z,101358.03
2017-03-28T11:04:48.406Z,101350.33
2017-03-28T11:05:46.251Z,101352.98
2017-03-28T11:06:44.132Z,101354.77
2017-03-28T11:07:41.991Z,101354.06
2017-03-28T11:08:39.891Z,101348.09
2017-03-28T11:09:37.782Z,101356.83
2017-03-28T11:10:35.668Z,101340.93
2017-03-28T11:11:33.529Z,101351.58
2017-03-28T11:12:31.386Z,101346.67
2017-03-28T11:13:29.245Z,101345.23
2017-03-28T11:14:27.108Z,101346.28
2017-03-28T11:15:25.024Z,101348.34
2017-03-28T11:16:22.865Z,101340.39
2017-03-28T11:17:20.756Z,101341.81
2017-03-28T11:18:18.672Z,101342.28
2017-03-28T11:19:16.533Z,101342.20
2017-03-28T11:20:14.393Z,101339.75
2017-03-28T11:21:12.294Z,101338.25
2017-03-28T11:22:10.185Z,101340.64
2017-03-28T11:23:08.009Z,101334.55
2017-03-28T11:24:05.974Z,101343.00
2017-03-28T11:25:04.026Z,101344.51
2017-03-28T11:26:01.884Z,101340.64
2017-03-28T11:26:59.781Z,101338.75
2017-03-28T11:27:57.652Z,101346.92
2017-03-28T11:28:55.510Z,101346.31
2017-03-28T11:29:53.354Z,101339.98
2017-03-28T11:30:51.226Z,101348.66
2017-03-28T11:31:49.149Z,101334.52
2017-03-28T11:32:47.024Z,101335.63
2017-03-28T11:33:44.896Z,101333.60
2017-03-28T11:34:42.733Z,101343.84
2017-03-28T11:35:40.617Z,101331.47
2017-03-28T11:36:38.497Z,101337.66
2017-03-28T11:37:43.397Z,101335.45
2017-03-28T11:38:41.285Z,101332.14
2017-03-28T11:39:39.128Z,101329.93
2017-03-28T11:40:37.041Z,101332.53
2017-03-28T11:41:34.889Z,101336.66
2017-03-28T11:42:32.741Z,101334.05
2017-03-28T11:43:30.593Z,101327.02
2017-03-28T11:44:28.488Z,101320.39
2017-03-28T11:45:26.514Z,101330.95
2017-03-28T11:46:24.337Z,101325.81
2017-03-28T11:47:22.618Z,101322.28
2017-03-28T11:48:20.458Z,101327.98